createdAt,value
2023-01-06T00:01:46.472Z,89.57
2023-01-06T00:04:17.135Z,88.47
2023-01-06T00:06:47.449Z,87.22
2023-01-06T00:09:17.175Z,88.64
2023-01-06T00:11:46.997Z,88.36
2023-01-06T00:14:17.599Z,89.47
2023-01-06T00:16:47.746Z,88.50
2023-01-06T00:19:17.483Z,89.03
2023-01-06T00:21:47.208Z,89.03
2023-01-06T00:24:18.258Z,89.40
2023-01-06T00:26:48.059Z,89.40
2023-01-06T00:29:17.843Z,89.23
2023-01-06T00:31:47.543Z,90.01
2023-01-06T00:34:17.248Z,89.50
2023-01-06T00:36:47.070Z,89.97
2023-01-06T00:39:17.145Z,89.76
2023-01-06T00:42:03.868Z,88.82
2023-01-06T00:44:36.608Z,88.86
2023-01-06T00:47:09.016Z,88.33
2023-01-06T00:49:39.241Z,88.74
2023-01-06T00:52:09.021Z,89.50
2023-01-06T00:54:39.062Z,88.83
2023-01-06T00:57:09.698Z,88.75
2023-01-06T00:59:39.820Z,88.67
2023-01-06T01:02:09.733Z,87.86
2023-01-06T01:04:39.800Z,88.32
2023-01-06T01:07:10.378Z,88.18
2023-01-06T01:09:42.011Z,88.79
2023-01-06T01:12:12.681Z,89.30
2023-01-06T01:14:51.925Z,87.96
2023-01-06T01:17:25.837Z,88.52
2023-01-06T01:19:57.668Z,88.32
2023-01-06T01:22:30.755Z,87.95
2023-01-06T01:25:02.557Z,87.25
2023-01-06T01:27:32.595Z,88.36
2023-01-06T01:30:02.725Z,88.09
2023-01-06T01:32:32.816Z,87.79
2023-01-06T01:35:02.875Z,87.00
2023-01-06T01:37:32.898Z,87.03
2023-01-06T01:40:02.934Z,86.63
2023-01-06T01:42:33.203Z,86.66
2023-01-06T01:45:08.315Z,86.85
2023-01-06T01:47:53.380Z,86.25
2023-01-06T01:50:42.241Z,86.79
2023-01-06T01:53:18.243Z,86.59
2023-01-06T01:55:51.809Z,86.35
2023-01-06T01:58:27.364Z,86.78
2023-01-06T02:00:57.877Z,87.23
2023-01-06T02:03:28.560Z,87.31
2023-01-06T02:06:01.324Z,86.51
2023-01-06T02:08:34.451Z,86.87
2023-01-06T02:11:06.425Z,87.42
2023-01-06T02:13:39.662Z,86.58
2023-01-06T02:16:24.393Z,86.58
2023-01-06T02:19:11.784Z,85.64
2023-01-06T02:22:13.276Z,85.74
2023-01-06T02:24:51.589Z,85.87
2023-01-06T02:27:38.733Z,85.24
2023-01-06T02:30:46.074Z,85.24
2023-01-06T02:33:27.819Z,85.27
2023-01-06T02:36:03.202Z,85.25
2023-01-06T02:38:36.047Z,86.31
2023-01-06T02:41:15.372Z,85.58
2023-01-06T02:43:51.222Z,85.78
2023-01-06T02:46:30.995Z,85.24
2023-01-06T02:49:06.301Z,85.55
2023-01-06T02:51:58.844Z,85.38
2023-01-06T02:54:43.725Z,84.95
2023-01-06T02:57:19.905Z,84.99
2023-01-06T03:00:01.225Z,85.06
2023-01-06T03:02:34.819Z,85.04
2023-01-06T03:05:07.091Z,84.60
2023-01-06T03:07:39.478Z,85.13
2023-01-06T03:10:13.025Z,85.62
2023-01-06T03:12:46.212Z,84.37
2023-01-06T03:15:16.239Z,84.84
2023-01-06T03:17:46.686Z,84.35
2023-01-06T03:20:18.661Z,84.67
2023-01-06T03:22:48.452Z,84.71
2023-01-06T03:25:18.618Z,84.73
2023-01-06T03:27:49.999Z,83.44
2023-01-06T03:30:20.631Z,83.44
2023-01-06T03:33:07.621Z,83.89
2023-01-06T03:35:48.683Z,84.40
2023-01-06T03:38:39.869Z,83.91
2023-01-06T03:41:32.188Z,84.10
2023-01-06T03:44:07.927Z,83.62
2023-01-06T03:46:41.030Z,82.79
2023-01-06T03:49:14.066Z,83.35
2023-01-06T03:51:55.845Z,82.98
2023-01-06T03:54:53.619Z,82.37
2023-01-06T03:57:29.703Z,81.48
2023-01-06T04:00:12.051Z,81.84
2023-01-06T04:02:47.789Z,81.04
2023-01-06T04:05:27.386Z,81.62
2023-01-06T04:07:58.288Z,81.33
2023-01-06T04:10:28.829Z,81.33
2023-01-06T04:13:00.003Z,81.21
2023-01-06T04:15:34.114Z,81.82
2023-01-06T04:18:05.587Z,80.83
2023-01-06T04:20:37.052Z,80.46
2023-01-06T04:23:08.172Z,81.12
2023-01-06T04:25:39.622Z,81.20
2023-01-06T04:28:11.430Z,81.24
2023-01-06T04:30:41.341Z,81.29
2023-01-06T04:33:12.038Z,81.37
2023-01-06T04:35:44.016Z,81.40
2023-01-06T04:38:15.514Z,80.99
2023-01-06T04:40:45.336Z,80.91
2023-01-06T04:43:16.362Z,80.97
2023-01-06T04:45:46.619Z,81.32
2023-01-06T04:48:17.082Z,81.22
2023-01-06T04:50:46.824Z,81.45
2023-01-06T04:53:17.040Z,81.50
2023-01-06T04:55:46.753Z,80.96
2023-01-06T04:58:17.051Z,81.48
2023-01-06T05:00:46.844Z,80.65
2023-01-06T05:03:16.273Z,81.13
2023-01-06T05:05:45.732Z,82.25
2023-01-06T05:08:16.200Z,81.38
2023-01-06T05:10:45.933Z,81.17
2023-01-06T05:13:15.751Z,81.57
2023-01-06T05:15:45.453Z,81.57
2023-01-06T05:18:16.228Z,82.06
2023-01-06T05:20:46.247Z,81.51
2023-01-06T05:23:16.755Z,81.08
2023-01-06T05:25:46.805Z,81.40
2023-01-06T05:28:16.593Z,81.26
2023-01-06T05:30:46.372Z,81.19
2023-01-06T05:33:16.739Z,81.12
2023-01-06T05:35:46.542Z,82.02
2023-01-06T05:38:15.947Z,81.43
2023-01-06T05:40:45.673Z,81.30
2023-01-06T05:43:15.416Z,81.14
2023-01-06T05:45:45.612Z,81.02
2023-01-06T05:48:16.479Z,81.02
2023-01-06T05:50:46.293Z,81.34
2023-01-06T05:53:16.091Z,81.53
2023-01-06T05:55:45.871Z,81.73
2023-01-06T05:58:15.767Z,81.69
2023-01-06T06:00:45.484Z,81.35
2023-01-06T06:03:15.311Z,81.07
2023-01-06T06:05:45.012Z,81.39
2023-01-06T06:08:16.024Z,81.52
2023-01-06T06:10:45.835Z,81.61
2023-01-06T06:13:15.561Z,82.11
2023-01-06T06:15:45.593Z,82.49
2023-01-06T06:18:15.776Z,83.33
2023-01-06T06:20:45.588Z,84.20
2023-01-06T06:23:15.305Z,84.34
2023-01-06T06:25:44.758Z,84.32
2023-01-06T06:28:14.194Z,84.72
2023-01-06T06:30:43.927Z,84.62
2023-01-06T06:33:13.958Z,85.45
2023-01-06T06:35:43.683Z,84.94
2023-01-06T06:38:15.676Z,85.99
2023-01-06T06:40:45.473Z,85.99
2023-01-06T06:43:15.217Z,85.33
2023-01-06T06:45:48.726Z,85.45
2023-01-06T06:48:18.663Z,84.72
2023-01-06T06:50:49.879Z,84.72
2023-01-06T06:53:19.698Z,85.39
2023-01-06T06:55:49.419Z,84.56
2023-01-06T06:58:18.992Z,85.16
2023-01-06T07:00:48.816Z,85.52
2023-01-06T07:03:19.664Z,85.09
2023-01-06T07:05:51.372Z,85.63
2023-01-06T07:08:21.052Z,86.20
2023-01-06T07:10:51.642Z,87.73
2023-01-06T07:13:21.459Z,87.10
2023-01-06T07:15:51.288Z,88.85
2023-01-06T07:18:21.110Z,88.85
2023-01-06T07:20:54.148Z,90.04
2023-01-06T07:23:25.283Z,91.27
2023-01-06T07:25:56.882Z,90.76
2023-01-06T07:28:27.781Z,90.47
2023-01-06T07:30:57.581Z,90.92
2023-01-06T07:33:29.412Z,90.52
2023-01-06T07:35:59.550Z,91.40
2023-01-06T07:38:29.296Z,91.28
2023-01-06T07:41:02.195Z,91.44
2023-01-06T07:43:31.953Z,91.10
2023-01-06T07:46:01.843Z,91.75
2023-01-06T07:48:31.273Z,92.04
2023-01-06T07:51:01.026Z,92.54
2023-01-06T07:53:30.842Z,92.68
2023-01-06T07:56:00.618Z,93.45
2023-01-06T07:58:30.071Z,93.50
2023-01-06T08:01:01.360Z,93.50
2023-01-06T08:03:31.146Z,94.39
2023-01-06T08:06:00.935Z,93.48
2023-01-06T08:08:30.401Z,94.75
2023-01-06T08:11:00.409Z,94.99
2023-01-06T08:13:30.154Z,96.05
2023-01-06T08:15:59.902Z,94.86
2023-01-06T08:18:30.043Z,95.32
2023-01-06T08:21:10.367Z,94.34
2023-01-06T08:23:40.347Z,94.09
2023-01-06T08:26:13.601Z,93.90
2023-01-06T08:28:45.067Z,94.30
2023-01-06T08:31:17.989Z,93.60
2023-01-06T08:33:48.245Z,93.24
2023-01-06T08:36:19.916Z,92.40
2023-01-06T08:38:50.296Z,92.81
2023-01-06T08:41:20.848Z,92.17
2023-01-06T08:43:50.638Z,92.89
2023-01-06T08:46:21.757Z,91.88
2023-01-06T08:48:51.820Z,91.39
2023-01-06T08:51:23.703Z,91.73
2023-01-06T08:53:54.674Z,91.73
2023-01-06T08:56:27.964Z,90.94
2023-01-06T08:59:00.308Z,90.97
2023-01-06T09:01:32.933Z,89.99
2023-01-06T09:04:05.348Z,89.78
2023-01-06T09:06:35.350Z,89.99
2023-01-06T09:09:06.932Z,89.28
2023-01-06T09:11:37.301Z,89.44
2023-01-06T09:14:09.742Z,89.71
2023-01-06T09:16:39.482Z,89.62
2023-01-06T09:19:10.459Z,88.91
2023-01-06T09:21:41.830Z,87.73
2023-01-06T09:24:16.476Z,88.62
2023-01-06T09:26:46.297Z,89.37
2023-01-06T09:29:16.111Z,89.25
2023-01-06T09:31:46.168Z,88.88
2023-01-06T09:34:16.255Z,87.85
2023-01-06T09:36:45.955Z,86.48
2023-01-06T09:39:16.449Z,85.35
2023-01-06T09:42:15.186Z,85.35
2023-01-06T09:44:50.431Z,85.62
2023-01-06T09:47:23.389Z,85.61
2023-01-06T09:50:08.194Z,85.06
2023-01-06T09:52:44.304Z,84.19
2023-01-06T09:55:17.270Z,83.36
2023-01-06T09:57:58.129Z,83.75
2023-01-06T10:00:41.664Z,83.39
2023-01-06T10:03:17.066Z,82.68
2023-01-06T10:06:01.537Z,82.70
2023-01-06T10:09:07.315Z,81.78
2023-01-06T10:12:12.830Z,82.17
2023-01-06T10:15:01.887Z,81.08
2023-01-06T10:17:54.150Z,80.47
2023-01-06T10:20:32.794Z,80.79
2023-01-06T10:23:05.581Z,80.79
2023-01-06T10:25:40.916Z,80.73
2023-01-06T10:28:28.162Z,79.27
2023-01-06T10:31:03.629Z,78.30
2023-01-06T10:33:37.558Z,78.35
2023-01-06T10:36:17.290Z,79.73
2023-01-06T10:38:50.478Z,77.89
2023-01-06T10:41:41.314Z,78.46
2023-01-06T10:44:13.814Z,78.24
2023-01-06T10:46:45.388Z,76.28
2023-01-06T10:49:18.481Z,75.27
2023-01-06T10:52:00.115Z,75.98
2023-01-06T10:54:33.784Z,75.33
2023-01-06T10:57:06.604Z,73.23
2023-01-06T10:59:39.102Z,74.25
2023-01-06T11:02:12.087Z,74.77
2023-01-06T11:04:44.850Z,74.74
2023-01-06T11:07:15.796Z,75.58
2023-01-06T11:09:46.028Z,74.57
2023-01-06T11:12:25.711Z,75.10
2023-01-06T11:15:03.750Z,74.56
2023-01-06T11:17:34.158Z,74.44
2023-01-06T11:20:16.481Z,73.91
2023-01-06T11:22:48.323Z,72.47
2023-01-06T11:25:31.228Z,72.72
2023-01-06T11:28:21.258Z,74.66
2023-01-06T11:31:02.733Z,73.28
2023-01-06T11:33:35.280Z,72.34
2023-01-06T11:36:11.071Z,73.16
2023-01-06T11:38:52.673Z,72.29
2023-01-06T11:41:28.310Z,71.25
2023-01-06T11:44:03.799Z,71.43
2023-01-06T11:46:33.263Z,71.49
2023-01-06T11:49:06.140Z,71.01
2023-01-06T11:51:48.088Z,69.81
2023-01-06T11:54:35.307Z,71.76
2023-01-06T11:57:05.584Z,71.76
2023-01-06T11:59:54.702Z,70.96
2023-01-06T12:02:39.173Z,71.52
2023-01-06T12:05:11.942Z,70.37
2023-01-06T12:07:51.527Z,70.84
2023-01-06T12:10:24.315Z,69.79
2023-01-06T12:12:54.484Z,68.04
2023-01-06T12:15:27.691Z,68.02
2023-01-06T12:18:00.658Z,65.67
2023-01-06T12:20:33.828Z,64.80
2023-01-06T12:23:06.698Z,63.41
2023-01-06T12:25:40.168Z,62.92
2023-01-06T12:28:31.299Z,62.93
2023-01-06T12:31:32.651Z,61.92
2023-01-06T12:34:13.887Z,61.76
2023-01-06T12:37:05.753Z,61.19
2023-01-06T12:39:43.083Z,58.51
2023-01-06T12:42:38.264Z,58.08
2023-01-06T12:45:14.177Z,55.94
2023-01-06T12:47:54.229Z,55.56
2023-01-06T12:50:42.523Z,54.58
2023-01-06T12:53:29.922Z,54.51
2023-01-06T12:56:08.373Z,55.50
2023-01-06T12:59:13.612Z,57.15
2023-01-06T13:02:14.690Z,56.55
2023-01-06T13:05:06.879Z,58.06
2023-01-06T13:08:07.838Z,56.88
2023-01-06T13:10:40.721Z,58.04
2023-01-06T13:13:31.475Z,57.80
2023-01-06T13:16:04.259Z,58.29
2023-01-06T13:18:37.043Z,58.14
2023-01-06T13:21:17.673Z,56.65
2023-01-06T13:24:18.776Z,57.28
2023-01-06T13:27:00.492Z,57.80
2023-01-06T13:29:38.944Z,57.80
2023-01-06T13:32:33.960Z,59.06
2023-01-06T13:35:39.351Z,58.34
2023-01-06T13:38:41.158Z,59.82
2023-01-06T13:41:16.585Z,60.47
2023-01-06T13:43:51.445Z,60.47
2023-01-06T13:46:24.253Z,60.46
2023-01-06T13:49:03.083Z,59.87
2023-01-06T13:51:38.240Z,59.15
2023-01-06T13:54:29.102Z,58.44
2023-01-06T13:57:22.566Z,58.97
2023-01-06T14:00:07.285Z,60.45
2023-01-06T14:02:48.518Z,62.22
2023-01-06T14:05:27.835Z,62.62
2023-01-06T14:08:03.162Z,62.92
2023-01-06T14:10:43.734Z,63.42
2023-01-06T14:13:25.731Z,62.91
2023-01-06T14:15:58.995Z,62.92
2023-01-06T14:18:46.782Z,63.96
2023-01-06T14:21:20.283Z,63.96
2023-01-06T14:23:53.860Z,64.30
2023-01-06T14:26:25.670Z,64.24
2023-01-06T14:28:55.524Z,64.62
2023-01-06T14:31:28.356Z,64.80
2023-01-06T14:34:00.598Z,64.53
2023-01-06T14:36:34.925Z,64.63
2023-01-06T14:39:07.465Z,65.15
2023-01-06T14:41:42.937Z,65.33
2023-01-06T14:44:31.877Z,65.92
2023-01-06T14:47:04.685Z,66.73
2023-01-06T14:49:49.139Z,66.43
2023-01-06T14:52:21.422Z,66.75
2023-01-06T14:54:53.862Z,66.15
2023-01-06T14:57:29.110Z,67.06
2023-01-06T15:00:20.575Z,67.58
2023-01-06T15:03:01.463Z,68.00
2023-01-06T15:05:37.676Z,68.10
2023-01-06T15:08:12.632Z,67.28
2023-01-06T15:10:47.992Z,68.08
2023-01-06T15:13:31.574Z,68.14
2023-01-06T15:16:04.496Z,69.43
2023-01-06T15:18:37.192Z,70.27
2023-01-06T15:21:07.364Z,69.88
2023-01-06T15:23:40.180Z,69.29
2023-01-06T15:26:16.657Z,69.02
2023-01-06T15:29:04.572Z,69.99
2023-01-06T15:31:37.013Z,69.47
2023-01-06T15:34:33.154Z,69.89
2023-01-06T15:37:04.950Z,70.74
2023-01-06T15:39:35.810Z,70.74
2023-01-06T15:42:10.511Z,71.06
2023-01-06T15:44:40.103Z,71.42
2023-01-06T15:47:15.374Z,71.49
2023-01-06T15:49:53.603Z,72.04
2023-01-06T15:52:26.264Z,71.35
2023-01-06T15:54:58.619Z,71.78
2023-01-06T15:57:31.162Z,72.03
2023-01-06T16:00:06.679Z,72.65
2023-01-06T16:02:36.951Z,72.85
2023-01-06T16:05:07.968Z,73.25
2023-01-06T16:07:43.202Z,73.26
2023-01-06T16:10:33.976Z,73.64
2023-01-06T16:13:12.527Z,73.64
2023-01-06T16:15:53.800Z,73.83
2023-01-06T16:18:35.269Z,73.66
2023-01-06T16:21:26.077Z,74.14
2023-01-06T16:23:58.187Z,74.27
2023-01-06T16:26:45.327Z,74.11
2023-01-06T16:29:33.614Z,74.44
2023-01-06T16:32:31.595Z,74.31
2023-01-06T16:35:09.999Z,75.06
2023-01-06T16:37:39.778Z,74.83
2023-01-06T16:40:10.102Z,74.17
2023-01-06T16:42:40.745Z,74.66
2023-01-06T16:45:19.017Z,75.09
2023-01-06T16:47:48.766Z,75.31
2023-01-06T16:50:24.393Z,75.55
2023-01-06T16:53:05.755Z,75.72
2023-01-06T16:55:35.928Z,77.09
2023-01-06T16:58:17.471Z,77.09
2023-01-06T17:00:50.498Z,77.07
2023-01-06T17:03:23.945Z,78.13
2023-01-06T17:05:54.289Z,78.37
2023-01-06T17:08:35.501Z,78.97
2023-01-06T17:11:17.030Z,79.09
2023-01-06T17:13:55.656Z,80.10
2023-01-06T17:16:30.124Z,80.24
2023-01-06T17:19:02.928Z,80.39
2023-01-06T17:21:37.937Z,81.45
2023-01-06T17:24:23.209Z,81.86
2023-01-06T17:27:02.273Z,81.82
2023-01-06T17:29:34.735Z,81.97
2023-01-06T17:32:09.342Z,81.91
2023-01-06T17:34:39.172Z,82.54
2023-01-06T17:37:14.559Z,83.11
2023-01-06T17:39:46.793Z,84.69
2023-01-06T17:42:19.591Z,84.55
2023-01-06T17:44:59.750Z,85.12
2023-01-06T17:47:38.494Z,84.56
2023-01-06T17:53:35.410Z,84.57
2023-01-06T17:56:09.056Z,84.31
2023-01-06T17:58:44.319Z,84.04
2023-01-06T18:01:17.044Z,84.09
2023-01-06T18:03:47.544Z,84.29
2023-01-06T18:06:30.186Z,84.30
2023-01-06T18:09:05.492Z,84.59
2023-01-06T18:11:40.966Z,84.11
2023-01-06T18:14:26.804Z,84.42
2023-01-06T18:16:59.023Z,83.94
2023-01-06T18:19:34.461Z,84.48
2023-01-06T18:22:24.148Z,85.49
2023-01-06T18:25:02.400Z,86.00
2023-01-06T18:27:36.839Z,86.22
2023-01-06T18:30:26.840Z,86.96
2023-01-06T18:32:56.717Z,87.16
2023-01-06T18:35:28.817Z,86.14
2023-01-06T18:38:03.267Z,86.91
2023-01-06T18:40:33.456Z,87.58
2023-01-06T18:43:05.705Z,87.80
2023-01-06T18:45:37.203Z,87.65
2023-01-06T18:48:18.535Z,88.09
2023-01-06T18:50:50.321Z,88.46
2023-01-06T18:53:28.749Z,88.26
2023-01-06T18:56:01.739Z,88.12
2023-01-06T18:58:47.435Z,88.85
2023-01-06T19:01:22.893Z,88.73
2023-01-06T19:04:21.218Z,89.21
2023-01-06T19:07:05.579Z,89.21
2023-01-06T19:09:41.022Z,87.98
2023-01-06T19:12:14.544Z,89.69
2023-01-06T19:14:50.367Z,89.69
2023-01-06T19:17:31.960Z,89.06
2023-01-06T19:20:03.787Z,89.03
2023-01-06T19:22:34.515Z,89.60
2023-01-06T19:25:37.300Z,89.88
2023-01-06T19:28:24.699Z,90.19
2023-01-06T19:31:00.857Z,88.84
2023-01-06T19:33:38.963Z,89.22
2023-01-06T19:36:37.037Z,88.66
2023-01-06T19:39:18.493Z,88.66
2023-01-06T19:41:49.098Z,89.00
2023-01-06T19:44:18.817Z,88.30
2023-01-06T19:46:49.607Z,89.53
2023-01-06T19:49:22.391Z,88.72
2023-01-06T19:51:54.697Z,88.60
2023-01-06T19:54:35.544Z,89.89
2023-01-06T19:57:09.000Z,90.93
2023-01-06T19:59:39.024Z,92.30
2023-01-06T20:02:31.374Z,92.18
2023-01-06T20:05:02.414Z,93.16
2023-01-06T20:07:32.162Z,93.16
2023-01-06T20:10:01.922Z,94.18
2023-01-06T20:12:31.406Z,94.79
2023-01-06T20:15:01.459Z,93.74
2023-01-06T20:17:31.184Z,94.75
2023-01-06T20:20:00.938Z,95.26
2023-01-06T20:22:30.676Z,94.34
2023-01-06T20:25:00.730Z,93.80
2023-01-06T20:27:30.520Z,93.14
2023-01-06T20:30:00.272Z,94.18
2023-01-06T20:32:30.025Z,95.31
2023-01-06T20:34:59.496Z,95.31
2023-01-06T20:37:29.251Z,94.27
2023-01-06T20:39:59.189Z,93.06
2023-01-06T20:42:29.076Z,94.29
2023-01-06T20:44:59.121Z,94.43
2023-01-06T20:47:28.899Z,95.01
2023-01-06T20:49:58.929Z,95.18
2023-01-06T20:52:28.680Z,96.15
2023-01-06T20:54:58.422Z,94.70
2023-01-06T20:57:28.380Z,95.08
2023-01-06T20:59:58.103Z,95.02
2023-01-06T21:02:28.107Z,94.95
2023-01-06T21:04:58.215Z,95.65
2023-01-06T21:07:27.962Z,95.75
2023-01-06T21:09:58.153Z,94.93
2023-01-06T21:12:27.935Z,94.73
2023-01-06T21:14:57.705Z,96.01
2023-01-06T21:17:27.542Z,95.69
2023-01-06T21:19:57.328Z,95.64
2023-01-06T21:22:26.953Z,94.86
2023-01-06T21:24:56.758Z,94.91
2023-01-06T21:27:26.756Z,95.68
2023-01-06T21:29:56.793Z,95.06
2023-01-06T21:32:27.019Z,95.74
2023-01-06T21:34:58.510Z,94.70
2023-01-06T21:37:28.274Z,93.94
2023-01-06T21:39:58.363Z,95.01
2023-01-06T21:42:45.944Z,96.20
2023-01-06T21:45:15.789Z,95.13
2023-01-06T21:47:45.592Z,93.86
2023-01-06T21:50:16.662Z,95.08
2023-01-06T21:52:47.333Z,94.28
2023-01-06T21:55:17.287Z,93.13
2023-01-06T21:57:46.999Z,94.78
2023-01-06T22:00:17.241Z,94.96
2023-01-06T22:02:48.361Z,94.35
2023-01-06T22:05:18.232Z,94.22
2023-01-06T22:07:51.341Z,94.35
2023-01-06T22:10:23.737Z,93.46
2023-01-06T22:12:56.708Z,93.87
2023-01-06T22:15:28.796Z,92.92
2023-01-06T22:18:00.869Z,93.15
2023-01-06T22:20:32.720Z,92.94
2023-01-06T22:23:05.656Z,92.13
2023-01-06T22:25:35.368Z,92.39
2023-01-06T22:28:06.464Z,93.25
2023-01-06T22:30:36.717Z,93.28
2023-01-06T22:33:06.482Z,92.94
2023-01-06T22:35:36.313Z,92.13
2023-01-06T22:38:08.112Z,91.34
2023-01-06T22:40:37.838Z,91.97
2023-01-06T22:43:08.039Z,92.33
2023-01-06T22:45:37.958Z,91.40
2023-01-06T22:48:09.767Z,90.35
2023-01-06T22:50:39.760Z,89.98
2023-01-06T22:53:09.590Z,90.55
2023-01-06T22:55:39.614Z,90.70
2023-01-06T22:58:11.020Z,91.33
2023-01-06T23:00:41.093Z,91.17
2023-01-06T23:03:10.942Z,91.56
2023-01-06T23:05:40.774Z,90.91
2023-01-06T23:08:11.664Z,91.42
2023-01-06T23:10:41.416Z,90.23
2023-01-06T23:13:11.153Z,90.22
2023-01-06T23:15:40.915Z,89.33
2023-01-06T23:18:12.077Z,89.63
2023-01-06T23:20:41.846Z,89.57
2023-01-06T23:23:11.622Z,90.28
2023-01-06T23:25:41.306Z,90.64
2023-01-06T23:28:11.317Z,90.34
2023-01-06T23:30:41.069Z,90.48
2023-01-06T23:33:10.807Z,90.48
2023-01-06T23:35:40.992Z,89.66
2023-01-06T23:38:11.652Z,89.89
2023-01-06T23:40:41.775Z,89.39
2023-01-06T23:43:11.527Z,89.72
2023-01-06T23:45:41.575Z,90.51
2023-01-06T23:48:11.982Z,90.02
2023-01-06T23:50:43.221Z,90.49
2023-01-06T23:53:12.956Z,90.52
2023-01-06T23:55:43.018Z,91.36
2023-01-06T23:58:13.254Z,91.27
